Time;durP1;ratioP1;P1;durP2;ratioP2;P2;SDS_P1;SDS_P2;PMS_P1;PMS_P2;Temp;Humidity;BMP_temperature;BMP_pressure;BME280_temperature;BME280_humidity;BME280_pressure;Samples;Min_cycle;Max_cycle;Signal;HPM_P1;HPM_P2
2024/04/05 00:00:26;;;;;;;1.27;0.77;;;;;;;11.56;100.00;100484.03;5094035;28;20430;-67
2024/04/05 00:02:53;;;;;;;1.77;0.80;;;;;;;11.67;99.72;100485.19;5111126;28;20414;-67
2024/04/05 00:05:20;;;;;;;2.40;0.70;;;;;;;11.61;100.00;100492.34;5107396;28;20391;-67
2024/04/05 00:07:48;;;;;;;1.27;0.70;;;;;;;11.70;100.00;100488.31;5111014;28;20428;-66
2024/04/05 00:10:16;;;;;;;1.07;0.60;;;;;;;11.73;99.22;100481.63;5107107;28;20438;-67
2024/04/05 00:12:44;;;;;;;0.90;0.50;;;;;;;11.67;99.72;100491.44;5111124;28;20835;-66
2024/04/05 00:15:12;;;;;;;1.30;0.80;;;;;;;11.73;99.70;100490.59;5111613;28;20932;-66
2024/04/05 00:17:39;;;;;;;1.10;0.90;;;;;;;11.80;98.93;100487.03;5114993;28;20428;-65
2024/04/05 00:20:07;;;;;;;0.80;0.60;;;;;;;11.80;98.81;100492.44;5109414;28;20456;-67
2024/04/05 00:22:34;;;;;;;1.30;0.70;;;;;;;11.70;99.47;100482.88;5110308;28;20418;-66
2024/04/05 00:25:02;;;;;;;1.70;0.70;;;;;;;11.82;98.84;100479.47;5114307;28;20399;-67
2024/04/05 00:27:29;;;;;;;1.00;0.70;;;;;;;11.80;98.76;100476.19;5112875;28;20399;-66
2024/04/05 00:29:59;;;;;;;1.23;0.70;;;;;;;11.78;99.59;100487.22;5107750;28;20428;-67
2024/04/05 00:32:26;;;;;;;2.40;0.80;;;;;;;11.79;98.98;100474.50;5114672;28;20831;-66
2024/04/05 00:34:54;;;;;;;0.90;0.70;;;;;;;11.81;99.47;100491.41;5111028;28;20438;-66
2024/04/05 00:37:20;;;;;;;1.07;0.60;;;;;;;11.80;98.75;100482.44;5109520;28;20433;-65
2024/04/05 00:39:48;;;;;;;0.80;0.40;;;;;;;11.77;98.90;100486.41;5113972;28;20431;-67
2024/04/05 00:42:15;;;;;;;0.90;0.70;;;;;;;11.81;99.01;100478.69;5113615;28;20474;-66
2024/04/05 00:44:43;;;;;;;1.40;1.23;;;;;;;11.81;98.08;100486.81;5102244;28;20396;-67
2024/04/05 00:47:11;;;;;;;1.37;0.93;;;;;;;11.79;98.43;100491.59;5107771;28;20433;-66
2024/04/05 00:49:39;;;;;;;1.00;0.80;;;;;;;11.75;98.76;100493.09;5111456;28;20422;-66
2024/04/05 00:52:06;;;;;;;5.50;0.90;;;;;;;11.81;98.07;100488.69;5113153;28;20796;-67
2024/04/05 00:54:34;;;;;;;3.10;0.63;;;;;;;11.76;98.68;100501.00;5109208;28;20450;-66
2024/04/05 00:57:01;;;;;;;1.10;0.57;;;;;;;11.73;99.11;100504.16;5111939;28;20428;-66
2024/04/05 00:59:29;;;;;;;3.57;0.70;;;;;;;11.66;98.89;100503.34;5108299;28;20432;-67
2024/04/05 01:01:56;;;;;;;1.00;0.90;;;;;;;11.61;99.57;100510.47;5113476;28;20443;-67
2024/04/05 01:04:26;;;;;;;3.13;0.93;;;;;;;11.51;100.00;100507.41;5109025;28;20428;-66
2024/04/05 01:06:52;;;;;;;1.37;1.13;;;;;;;11.56;100.00;100515.72;5108480;28;20395;-66
2024/04/05 01:09:21;;;;;;;1.23;0.60;;;;;;;11.55;100.00;100517.59;5113502;28;20455;-66
2024/04/05 01:11:55;;;;;;;1.50;0.90;;;;;;;11.42;100.00;100517.69;5108648;28;20448;-67
2024/04/05 01:14:23;;;;;;;1.07;0.90;;;;;;;11.42;100.00;100517.69;5108021;28;20936;-67
2024/04/05 01:16:50;;;;;;;2.63;1.27;;;;;;;11.37;100.00;100509.38;5111884;28;20420;-67
2024/04/05 01:19:19;;;;;;;1.43;0.73;;;;;;;11.24;100.00;100512.94;5112521;28;20406;-66
2024/04/05 01:21:51;;;;;;;1.33;0.93;;;;;;;11.21;100.00;100515.28;5110879;28;20448;-68
2024/04/05 01:24:20;;;;;;;0.80;0.50;;;;;;;11.26;100.00;100519.00;5109184;28;20425;-67
2024/04/05 01:26:47;;;;;;;2.70;1.03;;;;;;;11.28;100.00;100513.34;5111204;28;20792;-66
2024/04/05 01:29:14;;;;;;;2.10;1.27;;;;;;;11.34;100.00;100516.03;5102703;28;20830;-65
2024/04/05 01:31:41;;;;;;;2.10;0.93;;;;;;;11.33;100.00;100514.38;5104361;28;20490;-66
2024/04/05 01:34:11;;;;;;;3.00;1.47;;;;;;;11.33;100.00;100508.09;5109734;28;20485;-67
2024/04/05 01:36:37;;;;;;;13.87;2.77;;;;;;;11.34;100.00;100504.34;5113745;28;20949;-67
2024/04/05 01:39:05;;;;;;;1.63;1.37;;;;;;;11.21;100.00;100501.72;5113741;28;20407;-72
2024/04/05 01:41:35;;;;;;;1.40;0.90;;;;;;;11.40;100.00;100506.22;5113276;28;20456;-67
2024/04/05 01:44:03;;;;;;;1.30;0.60;;;;;;;11.46;100.00;100518.91;5107396;28;20403;-66
2024/04/05 01:46:30;;;;;;;1.60;0.83;;;;;;;11.41;100.00;100507.88;5113475;28;20761;-67
2024/04/05 01:48:58;;;;;;;9.03;2.40;;;;;;;11.49;100.00;100512.19;5110311;28;20403;-67
2024/04/05 01:51:25;;;;;;;4.60;1.00;;;;;;;11.50;100.00;100520.13;5111795;28;20476;-67
2024/04/05 01:53:53;;;;;;;1.27;0.60;;;;;;;11.61;100.00;100530.28;5107627;28;20448;-70
2024/04/05 01:56:19;;;;;;;14.13;1.53;;;;;;;11.65;100.00;100523.38;5106237;28;20471;-66
2024/04/05 01:58:48;;;;;;;4.40;1.33;;;;;;;11.66;100.00;100525.03;5106774;28;20417;-66
2024/04/05 02:01:15;;;;;;;10.57;1.03;;;;;;;11.79;100.00;100523.31;5110724;28;20966;-66
2024/04/05 02:03:43;;;;;;;0.90;0.50;;;;;;;11.78;100.00;100514.34;5113115;28;20431;-67
2024/04/05 02:06:14;;;;;;;2.17;0.90;;;;;;;11.84;100.00;100526.19;5106912;28;20777;-66
2024/04/05 02:08:41;;;;;;;4.83;1.03;;;;;;;11.79;100.00;100524.13;5113044;28;20749;-66
2024/04/05 02:11:09;;;;;;;1.23;0.63;;;;;;;11.77;100.00;100528.94;5088359;28;20510;-67
2024/04/05 02:13:37;;;;;;;1.00;0.60;;;;;;;11.83;100.00;100533.50;5110456;28;20407;-68
2024/04/05 02:16:06;;;;;;;0.83;0.60;;;;;;;11.84;99.57;100537.88;5112123;28;20960;-67
2024/04/05 02:18:34;;;;;;;2.03;0.90;;;;;;;11.82;99.92;100534.53;5111729;28;20921;-67
2024/04/05 02:21:00;;;;;;;0.90;0.70;;;;;;;11.84;100.00;100537.88;5107427;28;20963;-67
2024/04/05 02:23:28;;;;;;;0.80;0.60;;;;;;;11.84;100.00;100537.03;5113235;28;20405;-67
2024/04/05 02:25:55;;;;;;;1.77;1.20;;;;;;;11.85;99.66;100534.13;5112240;28;20403;-68
2024/04/05 02:28:23;;;;;;;0.90;0.50;;;;;;;11.86;99.74;100534.94;5099497;28;20473;-65
2024/04/05 02:30:49;;;;;;;1.37;0.87;;;;;;;11.86;99.56;100534.94;5112906;28;20419;-67
2024/04/05 02:33:19;;;;;;;0.80;0.50;;;;;;;11.83;100.00;100538.06;5113089;28;20414;-67
2024/04/05 02:35:46;;;;;;;0.90;0.50;;;;;;;11.86;99.68;100537.66;5109501;28;20785;-67
2024/04/05 02:38:14;;;;;;;2.40;0.70;;;;;;;11.81;100.00;100540.19;5106713;28;20425;-68
2024/04/05 02:40:41;;;;;;;2.20;1.20;;;;;;;11.96;100.00;100546.13;5111622;28;21013;-67
2024/04/05 02:43:08;;;;;;;3.37;1.00;;;;;;;11.91;100.00;100544.06;5106984;28;20777;-67
2024/04/05 02:45:35;;;;;;;1.50;1.03;;;;;;;11.82;100.00;100539.97;5109238;28;20396;-67
2024/04/05 02:48:03;;;;;;;1.33;1.00;;;;;;;11.87;100.00;100547.44;5109004;28;20429;-67
2024/04/05 02:50:31;;;;;;;1.37;0.80;;;;;;;11.83;100.00;100552.47;5112018;28;20419;-67
2024/04/05 02:52:59;;;;;;;0.80;0.50;;;;;;;11.77;100.00;100554.16;5111060;28;20518;-68
2024/04/05 02:55:26;;;;;;;1.30;0.80;;;;;;;11.77;100.00;100554.16;5105704;28;20430;-67
2024/04/05 02:57:54;;;;;;;1.53;0.87;;;;;;;11.76;100.00;100563.34;5104777;28;20774;-67
2024/04/05 03:00:20;;;;;;;5.27;1.13;;;;;;;11.86;100.00;100562.88;5111912;28;20460;-67
2024/04/05 03:02:48;;;;;;;1.10;0.77;;;;;;;11.88;100.00;100565.38;5105889;28;20427;-67
2024/04/05 03:05:15;;;;;;;9.60;1.13;;;;;;;11.80;100.00;100562.94;5112033;28;20481;-66
2024/04/05 03:07:44;;;;;;;1.27;0.80;;;;;;;11.81;100.00;100553.75;5110718;28;20897;-66
2024/04/05 03:10:11;;;;;;;1.13;0.80;;;;;;;11.80;100.00;100562.94;5106779;28;20795;-66
2024/04/05 03:12:39;;;;;;;1.30;0.83;;;;;;;11.76;100.00;100566.06;5110157;28;20403;-66
2024/04/05 03:15:07;;;;;;;1.97;0.97;;;;;;;11.68;100.00;100560.88;5108824;28;20431;-67
2024/04/05 03:17:34;;;;;;;4.37;2.00;;;;;;;11.71;100.00;100565.84;5107883;28;20915;-67
2024/04/05 03:20:01;;;;;;;1.77;1.30;;;;;;;11.63;100.00;100568.81;5110219;28;20465;-67
2024/04/05 03:22:29;;;;;;;1.53;1.20;;;;;;;11.61;100.00;100576.34;5105820;28;20403;-67
2024/04/05 03:24:57;;;;;;;2.80;0.90;;;;;;;11.58;100.00;100571.34;5108984;28;20416;-67
2024/04/05 03:27:25;;;;;;;1.10;0.70;;;;;;;11.57;100.00;100571.59;5111248;28;20447;-67
2024/04/05 03:29:51;;;;;;;7.23;1.37;;;;;;;11.66;100.00;100568.41;5112187;28;20453;-66
2024/04/05 03:32:19;;;;;;;1.90;1.33;;;;;;;11.53;100.00;100573.88;5112314;28;20527;-67
2024/04/05 03:34:47;;;;;;;1.10;0.73;;;;;;;11.69;100.00;100583.38;5085848;28;20603;-67
2024/04/05 03:37:15;;;;;;;1.00;0.70;;;;;;;11.66;100.00;100581.13;5112052;28;20403;-66
2024/04/05 03:39:43;;;;;;;2.80;1.00;;;;;;;11.71;100.00;100584.81;5111305;28;20411;-67
2024/04/05 03:42:12;;;;;;;1.40;1.00;;;;;;;11.88;100.00;100577.03;5103539;28;20433;-66
2024/04/05 03:44:38;;;;;;;4.83;0.60;;;;;;;11.91;100.00;100592.88;5109654;28;20428;-66
2024/04/05 03:47:06;;;;;;;3.90;0.97;;;;;;;11.95;100.00;100588.69;5102678;28;20415;-67
2024/04/05 03:49:34;;;;;;;5.43;0.70;;;;;;;11.90;100.00;100590.41;5109097;28;20395;-67
2024/04/05 03:52:02;;;;;;;1.97;1.27;;;;;;;11.88;100.00;100587.88;5098246;28;20497;-66
2024/04/05 03:54:29;;;;;;;1.47;1.20;;;;;;;11.89;100.00;100588.72;5111125;28;20769;-65
2024/04/05 03:56:56;;;;;;;1.17;0.80;;;;;;;11.89;100.00;100586.84;5111964;28;20443;-66
2024/04/05 03:59:26;;;;;;;1.83;0.70;;;;;;;11.75;100.00;100596.94;5107644;28;20435;-66
2024/04/05 04:01:54;;;;;;;1.53;0.80;;;;;;;11.84;100.00;100594.81;5110334;28;20457;-67
2024/04/05 04:04:21;;;;;;;0.80;0.57;;;;;;;11.73;100.00;100590.91;5105494;28;20440;-67
2024/04/05 04:06:50;;;;;;;1.73;0.70;;;;;;;11.76;100.00;100592.34;5123482;28;20403;-66
2024/04/05 04:09:17;;;;;;;4.77;0.80;;;;;;;11.67;100.00;100597.16;5121232;28;20424;-67
2024/04/05 04:11:46;;;;;;;1.97;1.43;;;;;;;11.75;100.00;100602.38;5113923;28;20446;-67
2024/04/05 04:14:13;;;;;;;3.03;0.90;;;;;;;11.65;100.00;100593.84;5109202;28;20936;-67
2024/04/05 04:16:42;;;;;;;4.97;1.23;;;;;;;11.60;100.00;100601.78;5114228;28;20554;-66
2024/04/05 04:19:11;;;;;;;1.60;1.07;;;;;;;11.71;100.00;100601.06;5109218;28;20934;-67
2024/04/05 04:21:38;;;;;;;1.97;1.00;;;;;;;11.79;100.00;100604.63;5112742;28;20508;-66
2024/04/05 04:24:05;;;;;;;3.43;2.67;;;;;;;11.63;100.00;100604.03;5111761;28;20930;-67
2024/04/05 04:26:33;;;;;;;1.10;0.63;;;;;;;11.61;100.00;100600.75;5111079;28;20425;-66
2024/04/05 04:29:03;;;;;;;1.00;0.80;;;;;;;11.51;100.00;100611.22;5109435;28;20403;-68
2024/04/05 04:31:31;;;;;;;1.20;0.93;;;;;;;11.44;100.00;100610.38;5110550;28;20456;-67
2024/04/05 04:33:59;;;;;;;1.20;0.80;;;;;;;11.31;100.00;100614.00;5105137;28;20911;-67
2024/04/05 04:36:26;;;;;;;1.17;0.93;;;;;;;11.26;100.00;100621.94;5106389;28;20520;-66
2024/04/05 04:38:54;;;;;;;1.00;0.83;;;;;;;11.23;100.00;100619.63;5093556;28;20440;-66
2024/04/05 04:41:21;;;;;;;2.90;1.30;;;;;;;11.29;100.00;100626.91;5110882;28;20798;-66
2024/04/05 04:43:49;;;;;;;1.20;0.67;;;;;;;11.17;100.00;100633.19;5111018;28;20418;-66
2024/04/05 04:46:15;;;;;;;2.50;1.37;;;;;;;11.11;100.00;100634.03;5107334;28;20456;-67
2024/04/05 04:48:43;;;;;;;2.60;1.57;;;;;;;11.12;100.00;100641.13;5110090;28;20439;-67
2024/04/05 04:51:11;;;;;;;1.20;1.03;;;;;;;11.13;100.00;100638.22;5107945;28;20493;-67
2024/04/05 04:53:39;;;;;;;4.03;0.80;;;;;;;11.11;100.00;100636.75;5094934;28;20415;-67
2024/04/05 04:56:06;;;;;;;6.17;1.70;;;;;;;11.12;100.00;100647.38;5101409;28;20861;-67
2024/04/05 04:58:34;;;;;;;2.67;1.13;;;;;;;11.09;100.00;100646.94;5110749;28;20469;-67
2024/04/05 05:01:01;;;;;;;1.23;1.00;;;;;;;10.98;100.00;100644.91;5105818;28;20509;-67
2024/04/05 05:03:29;;;;;;;0.90;0.80;;;;;;;11.02;100.00;100651.56;5108883;28;20478;-67
2024/04/05 05:05:55;;;;;;;1.20;0.80;;;;;;;11.19;100.00;100659.00;5111388;28;20395;-67
2024/04/05 05:08:28;;;;;;;2.60;1.07;;;;;;;11.30;100.00;100666.50;5113936;28;20421;-67
2024/04/05 05:10:55;;;;;;;1.10;0.80;;;;;;;11.20;100.00;100659.84;5107991;28;20462;-67
2024/04/05 05:13:23;;;;;;;6.40;0.80;;;;;;;11.17;100.00;100654.88;5113458;28;20394;-66
2024/04/05 05:15:50;;;;;;;1.80;0.80;;;;;;;11.25;100.00;100660.06;5109154;28;20482;-67
2024/04/05 05:18:18;;;;;;;3.00;1.40;;;;;;;11.30;100.00;100662.97;5112469;28;20429;-67
2024/04/05 05:20:46;;;;;;;1.00;0.80;;;;;;;11.29;100.00;100664.00;5116156;28;20521;-66
2024/04/05 05:23:13;;;;;;;0.90;0.60;;;;;;;11.61;100.00;100663.06;5119933;28;20781;-66
2024/04/05 05:25:44;;;;;;;0.90;0.60;;;;;;;11.60;100.00;100666.81;5106677;28;20429;-66
2024/04/05 05:28:12;;;;;;;1.23;0.67;;;;;;;11.80;100.00;100661.34;5115801;28;20429;-67
2024/04/05 05:30:39;;;;;;;1.70;0.80;;;;;;;11.95;100.00;100670.03;5116075;28;20513;-65
2024/04/05 05:33:08;;;;;;;8.40;1.23;;;;;;;12.07;100.00;100675.59;5111502;28;20436;-66
2024/04/05 05:35:35;;;;;;;2.03;1.60;;;;;;;12.14;99.57;100674.53;5117527;28;20460;-68
2024/04/05 05:38:04;;;;;;;3.23;1.10;;;;;;;12.23;98.83;100674.25;5109791;28;20411;-67
2024/04/05 05:40:31;;;;;;;3.60;3.00;;;;;;;12.38;97.78;100683.78;5108518;28;20448;-67
2024/04/05 05:43:00;;;;;;;1.20;0.80;;;;;;;12.44;96.82;100691.00;5113250;28;20523;-67
2024/04/05 05:45:27;;;;;;;1.43;1.00;;;;;;;12.47;96.61;100690.59;5113634;28;20403;-67
2024/04/05 05:47:56;;;;;;;2.03;1.43;;;;;;;12.46;96.55;100693.50;5112284;28;20425;-68
2024/04/05 05:50:24;;;;;;;3.00;0.97;;;;;;;12.49;97.23;100693.91;5102195;28;20457;-66
2024/04/05 05:52:52;;;;;;;1.93;1.33;;;;;;;12.72;95.55;100695.22;5110311;28;20422;-67
2024/04/05 05:55:22;;;;;;;2.60;1.30;;;;;;;12.66;94.88;100705.06;5106989;28;20520;-67
2024/04/05 05:57:50;;;;;;;1.77;0.93;;;;;;;12.82;94.66;100698.25;5111077;28;20456;-67
2024/04/05 06:00:18;;;;;;;1.40;1.00;;;;;;;12.66;94.21;100707.78;5107641;28;20500;-66
2024/04/05 06:02:46;;;;;;;1.30;0.80;;;;;;;12.80;94.69;100703.06;5112699;27;20415;-67
2024/04/05 06:05:13;;;;;;;2.20;2.00;;;;;;;12.98;93.38;100705.84;5110478;28;20808;-66
2024/04/05 06:07:41;;;;;;;1.43;1.20;;;;;;;13.10;92.05;100706.78;5111849;28;20424;-67
2024/04/05 06:10:08;;;;;;;7.33;1.00;;;;;;;13.13;91.14;100705.53;5113280;28;20480;-68
2024/04/05 06:12:39;;;;;;;2.20;0.80;;;;;;;13.19;91.59;100700.03;5113763;28;20499;-67
2024/04/05 06:15:07;;;;;;;1.53;0.60;;;;;;;13.19;90.46;100705.47;5104786;28;20420;-67
2024/04/05 06:17:37;;;;;;;1.40;0.90;;;;;;;13.31;90.09;100709.09;5110686;28;20806;-66
2024/04/05 06:20:06;;;;;;;1.57;0.87;;;;;;;13.48;89.01;100704.75;5112935;28;20574;-67
2024/04/05 06:22:34;;;;;;;2.77;0.90;;;;;;;13.82;88.12;100716.09;5095813;28;20434;-68
2024/04/05 06:25:02;;;;;;;7.50;2.53;;;;;;;13.78;86.80;100714.88;5111398;28;20453;-67
2024/04/05 06:27:30;;;;;;;4.23;1.17;;;;;;;14.06;86.21;100706.16;5113388;28;20395;-66
2024/04/05 06:29:58;;;;;;;4.50;0.87;;;;;;;14.08;84.75;100718.50;5107272;28;20852;-66
2024/04/05 06:32:25;;;;;;;3.17;1.30;;;;;;;14.18;83.43;100707.88;5110901;28;20403;-67
2024/04/05 06:34:54;;;;;;;1.63;0.77;;;;;;;14.53;82.20;100718.06;5102627;28;20403;-68
2024/04/05 06:37:22;;;;;;;8.83;1.00;;;;;;;14.66;80.87;100723.34;5112516;28;20945;-67
2024/04/05 06:39:52;;;;;;;6.20;1.67;;;;;;;14.93;79.96;100724.56;5112716;28;20498;-67
2024/04/05 06:42:20;;;;;;;1.37;0.80;;;;;;;15.19;78.11;100724.13;5094531;28;20432;-67
2024/04/05 06:44:50;;;;;;;7.13;1.17;;;;;;;15.10;78.18;100730.19;5112333;28;20399;-66
2024/04/05 06:47:18;;;;;;;4.60;1.43;;;;;;;15.19;76.43;100734.22;5112472;28;20404;-67
2024/04/05 06:49:45;;;;;;;10.00;1.30;;;;;;;15.28;75.96;100729.22;5095408;28;20437;-66
2024/04/05 06:52:14;;;;;;;1.80;0.83;;;;;;;15.13;75.96;100730.53;5112487;28;20848;-67
2024/04/05 06:54:42;;;;;;;1.70;0.80;;;;;;;15.00;77.35;100717.13;5108094;28;20776;-67
2024/04/05 06:57:10;;;;;;;3.47;0.80;;;;;;;15.26;76.31;100715.00;5109169;28;20438;-67
2024/04/05 06:59:38;;;;;;;1.53;0.87;;;;;;;15.48;74.84;100716.06;5113366;28;20486;-67
2024/04/05 07:02:06;;;;;;;2.80;0.85;;;;;;;15.83;74.01;100714.13;5111898;28;20755;-67
2024/04/05 07:04:33;;;;;;;2.23;1.33;;;;;;;15.98;73.62;100710.88;5100468;28;20195;-67
2024/04/05 07:07:01;;;;;;;1.47;1.00;;;;;;;15.54;75.15;100717.88;5111805;28;20414;-66
2024/04/05 07:09:29;;;;;;;5.77;1.40;;;;;;;15.62;73.83;100731.97;5112312;28;20403;-66
2024/04/05 07:12:02;;;;;;;16.23;1.80;;;;;;;15.72;74.35;100731.38;5095185;28;20563;-67
2024/04/05 07:14:29;;;;;;;1.20;0.70;;;;;;;16.05;73.31;100726.06;5104860;28;20415;-70
2024/04/05 07:16:57;;;;;;;10.90;1.37;;;;;;;16.37;71.76;100736.50;5114546;28;20431;-67
2024/04/05 07:19:25;;;;;;;5.90;1.27;;;;;;;16.39;70.26;100732.47;5112161;28;20403;-67
2024/04/05 07:21:52;;;;;;;3.23;1.80;;;;;;;16.20;70.50;100731.00;5112068;28;20476;-66
2024/04/05 07:24:21;;;;;;;4.20;0.97;;;;;;;15.93;71.12;100732.59;5092716;28;20501;-66
2024/04/05 07:26:50;;;;;;;5.67;1.67;;;;;;;15.84;71.83;100734.88;5111384;28;20893;-65
2024/04/05 07:29:17;;;;;;;2.90;0.97;;;;;;;16.12;70.54;100728.63;5107561;28;20957;-67
2024/04/05 07:31:49;;;;;;;4.40;0.80;;;;;;;16.32;70.18;100720.84;5110629;28;20415;-67
2024/04/05 07:34:16;;;;;;;4.10;1.10;;;;;;;16.45;69.26;100733.41;5107567;28;20400;-67
2024/04/05 07:36:45;;;;;;;1.73;1.50;;;;;;;16.41;69.20;100726.78;5106383;28;20431;-67
2024/04/05 07:39:12;;;;;;;2.90;0.90;;;;;;;16.54;69.44;100731.91;5111483;28;20411;-66
2024/04/05 07:41:40;;;;;;;4.33;1.07;;;;;;;16.47;69.09;100733.97;5111812;28;20423;-66
2024/04/05 07:44:08;;;;;;;1.70;0.80;;;;;;;16.34;68.88;100737.00;5111976;28;20452;-67
2024/04/05 07:46:36;;;;;;;2.17;1.17;;;;;;;16.41;70.42;100741.22;5111882;28;20954;-67
2024/04/05 07:49:03;;;;;;;3.20;0.80;;;;;;;16.56;68.74;100737.13;5111527;28;20407;-67
2024/04/05 07:51:30;;;;;;;3.80;1.57;;;;;;;16.60;68.93;100733.72;5112492;28;20951;-67
2024/04/05 07:53:57;;;;;;;1.73;1.03;;;;;;;16.48;68.49;100732.91;5112046;28;20451;-67
2024/04/05 07:56:25;;;;;;;1.50;1.17;;;;;;;16.51;68.20;100732.38;5111435;28;20446;-66
2024/04/05 07:58:52;;;;;;;6.60;1.50;;;;;;;16.50;69.91;100726.13;5103437;28;20464;-66
2024/04/05 08:01:21;;;;;;;2.20;1.13;;;;;;;16.60;68.21;100730.16;5108848;28;20460;-67
2024/04/05 08:03:48;;;;;;;1.10;0.63;;;;;;;16.56;67.69;100732.47;5111813;28;20510;-67
2024/04/05 08:06:16;;;;;;;3.47;1.23;;;;;;;16.56;68.10;100735.22;5112195;28;20407;-67
2024/04/05 08:08:45;;;;;;;1.03;0.80;;;;;;;16.71;67.97;100732.78;5111943;28;20468;-68
2024/04/05 08:11:13;;;;;;;1.20;0.80;;;;;;;16.81;66.73;100749.38;5112022;28;20468;-68
2024/04/05 08:13:40;;;;;;;1.63;0.80;;;;;;;17.13;65.62;100741.47;5111526;28;20455;-64
2024/04/05 08:16:08;;;;;;;1.00;0.87;;;;;;;17.45;64.43;100749.88;5110775;28;20427;-67
2024/04/05 08:18:36;;;;;;;5.63;0.93;;;;;;;17.85;64.11;100746.91;5107058;28;20429;-65
2024/04/05 08:21:05;;;;;;;2.03;0.90;;;;;;;17.69;62.42;100745.03;5104304;28;20466;-66
2024/04/05 08:23:32;;;;;;;1.80;0.67;;;;;;;17.68;62.35;100752.44;5105922;28;20933;-66
2024/04/05 08:26:02;;;;;;;1.40;0.90;;;;;;;17.74;63.44;100743.22;5109339;28;20432;-66
2024/04/05 08:28:29;;;;;;;16.23;1.70;;;;;;;18.04;62.41;100750.16;5111311;28;20496;-67
2024/04/05 08:30:57;;;;;;;3.13;1.73;;;;;;;17.75;61.92;100753.09;5097658;28;20424;-67
2024/04/05 08:33:28;;;;;;;3.57;1.63;;;;;;;17.35;63.80;100756.00;5108145;28;20403;-66
2024/04/05 08:35:58;;;;;;;3.70;1.27;;;;;;;17.55;63.34;100760.97;5112023;28;20399;-67
2024/04/05 08:38:25;;;;;;;6.97;1.20;;;;;;;17.49;64.56;100759.22;5111905;28;20399;-66
2024/04/05 08:40:54;;;;;;;1.20;0.57;;;;;;;17.51;64.25;100768.03;5114741;28;20826;-68
2024/04/05 08:43:25;;;;;;;8.13;2.20;;;;;;;17.29;64.80;100772.59;5115115;28;21012;-66
2024/04/05 08:45:53;;;;;;;13.23;2.20;;;;;;;17.32;64.93;100777.56;5108684;28;20404;-67
2024/04/05 08:48:22;;;;;;;2.97;1.43;;;;;;;17.27;65.51;100782.97;5097379;28;20407;-66
2024/04/05 08:50:49;;;;;;;2.60;0.80;;;;;;;17.21;65.19;100786.69;5112549;28;20958;-67
2024/04/05 08:53:18;;;;;;;4.00;1.17;;;;;;;17.70;64.05;100774.91;5107683;28;20418;-67
2024/04/05 08:55:47;;;;;;;5.90;1.30;;;;;;;17.81;63.23;100789.56;5113707;28;20399;-66
2024/04/05 08:58:15;;;;;;;2.30;1.23;;;;;;;18.00;63.24;100785.44;5113559;28;20406;-66
2024/04/05 09:00:44;;;;;;;1.97;0.83;;;;;;;18.15;62.44;100790.31;5112185;28;20526;-66
2024/04/05 09:03:11;;;;;;;4.47;1.47;;;;;;;18.28;62.16;100792.66;5109966;28;20395;-66
2024/04/05 09:05:41;;;;;;;1.20;0.83;;;;;;;18.44;62.49;100799.97;5109650;28;20450;-66
2024/04/05 09:08:08;;;;;;;1.07;0.73;;;;;;;18.88;61.63;100791.72;5105793;28;20396;-67
2024/04/05 09:10:38;;;;;;;3.70;0.70;;;;;;;18.56;61.09;100788.88;5109869;28;20933;-66
2024/04/05 09:13:05;;;;;;;3.20;1.03;;;;;;;18.71;60.89;100786.31;5101642;28;20414;-66
2024/04/05 09:15:33;;;;;;;1.53;1.13;;;;;;;18.92;61.80;100787.34;5114083;28;20893;-67
2024/04/05 09:18:00;;;;;;;1.67;0.93;;;;;;;19.35;60.25;100781.69;5113882;28;20460;-67
2024/04/05 09:20:30;;;;;;;3.10;0.80;;;;;;;19.27;58.96;100786.81;5105045;28;20472;-67
2024/04/05 09:23:00;;;;;;;1.97;0.70;;;;;;;19.07;58.54;100782.00;5113334;28;20455;-68
2024/04/05 09:25:28;;;;;;;1.40;0.70;;;;;;;19.09;58.76;100785.31;5113566;28;20813;-67
2024/04/05 09:28:10;;;;;;;3.43;0.70;;;;;;;18.89;59.51;100782.38;5111224;28;20397;-66
2024/04/05 09:30:40;;;;;;;1.33;0.70;;;;;;;18.79;60.02;100783.09;5112556;28;20448;-67
2024/04/05 09:33:07;;;;;;;4.70;1.33;;;;;;;19.16;58.94;100785.94;5110136;28;20428;-66
2024/04/05 09:35:39;;;;;;;1.87;1.00;;;;;;;19.23;59.06;100778.28;5107153;28;20428;-68
2024/04/05 09:38:06;;;;;;;5.90;1.27;;;;;;;19.04;59.51;100779.78;5109800;28;20459;-67
2024/04/05 09:40:37;;;;;;;9.03;2.00;;;;;;;18.44;60.89;100771.75;5106724;28;20458;-67
2024/04/05 09:43:05;;;;;;;1.53;0.80;;;;;;;18.17;62.38;100769.78;5114195;28;20828;-66
2024/04/05 09:45:37;;;;;;;4.53;1.10;;;;;;;18.65;61.93;100773.63;5107557;28;20453;-67
2024/04/05 09:48:04;;;;;;;3.23;1.27;;;;;;;18.32;62.15;100760.91;5102718;28;20395;-67
2024/04/05 09:50:32;;;;;;;3.03;1.20;;;;;;;18.06;63.33;100758.94;5111174;28;20451;-66
2024/04/05 09:53:03;;;;;;;7.23;1.33;;;;;;;18.04;64.19;100769.34;5110831;28;20413;-66
2024/04/05 09:55:38;;;;;;;6.30;1.17;;;;;;;18.22;64.15;100772.59;5107268;28;20455;-69
2024/04/05 09:58:06;;;;;;;20.53;1.50;;;;;;;18.27;64.26;100773.72;5108479;28;20538;-66
2024/04/05 10:00:37;;;;;;;1.40;0.60;;;;;;;18.48;64.26;100762.75;5105432;28;20440;-67
2024/04/05 10:03:05;;;;;;;1.50;1.10;;;;;;;18.33;65.05;100768.06;5083471;28;20798;-67
2024/04/05 10:05:34;;;;;;;1.10;0.80;;;;;;;18.08;66.59;100767.75;5103523;28;20778;-67
2024/04/05 10:08:12;;;;;;;0.90;0.50;;;;;;;18.18;66.89;100755.00;5106724;28;20452;-67
2024/04/05 10:10:40;;;;;;;1.00;0.53;;;;;;;18.31;67.02;100764.72;5105010;28;20493;-67
2024/04/05 10:13:12;;;;;;;5.53;1.53;;;;;;;18.47;66.89;100757.53;5110837;28;20942;-67
2024/04/05 10:15:52;;;;;;;1.80;0.90;;;;;;;18.57;66.40;100765.88;5111123;28;20925;-65
2024/04/05 10:18:25;;;;;;;1.00;0.70;;;;;;;18.63;67.06;100773.91;5109906;28;20979;-66
2024/04/05 10:21:00;;;;;;;4.40;0.80;;;;;;;18.80;67.29;100772.97;5104384;28;20802;-67
2024/04/05 10:23:27;;;;;;;1.20;0.80;;;;;;;18.80;66.24;100770.22;5109016;28;20762;-67
2024/04/05 10:25:56;;;;;;;4.10;1.07;;;;;;;18.86;66.72;100761.78;5108140;28;20795;-67
2024/04/05 10:28:23;;;;;;;3.47;0.80;;;;;;;18.95;66.59;100767.63;5112611;28;20391;-66
2024/04/05 10:30:54;;;;;;;3.63;1.10;;;;;;;18.74;67.55;100763.03;5111254;28;20795;-67
2024/04/05 10:33:22;;;;;;;2.50;1.07;;;;;;;18.52;68.97;100763.88;5108165;28;20428;-67
2024/04/05 10:35:51;;;;;;;1.57;0.80;;;;;;;18.94;68.07;100764.06;5112154;28;20923;-68
2024/04/05 10:38:18;;;;;;;4.63;1.70;;;;;;;18.79;68.21;100761.16;5112561;28;20442;-68
2024/04/05 10:40:56;;;;;;;3.30;0.80;;;;;;;19.05;68.30;100775.94;5107626;28;20419;-66
2024/04/05 10:43:25;;;;;;;6.03;1.93;;;;;;;19.01;66.95;100763.84;5108740;28;20835;-67
2024/04/05 10:45:55;;;;;;;7.03;1.97;;;;;;;18.82;68.58;100748.88;5110415;28;20416;-67
2024/04/05 10:48:22;;;;;;;1.70;1.07;;;;;;;19.27;67.82;100741.00;5103802;28;20457;-66
2024/04/05 10:50:50;;;;;;;2.50;1.23;;;;;;;19.39;65.69;100733.44;5101553;28;20452;-67
2024/04/05 10:53:20;;;;;;;1.20;0.80;;;;;;;19.61;64.62;100737.97;5111300;28;20419;-67
2024/04/05 10:55:51;;;;;;;1.10;0.80;;;;;;;18.98;66.73;100720.47;5111410;28;20995;-66
2024/04/05 10:58:19;;;;;;;1.20;0.73;;;;;;;19.37;66.96;100723.78;5107793;28;20948;-67
2024/04/05 11:00:47;;;;;;;1.20;0.73;;;;;;;19.62;65.16;100731.38;5090007;28;20821;-66
2024/04/05 11:03:16;;;;;;;1.33;0.93;;;;;;;19.29;65.26;100729.78;5106346;28;20782;-65
2024/04/05 11:05:44;;;;;;;4.00;1.23;;;;;;;19.32;66.02;100727.31;5103411;28;20416;-66
2024/04/05 11:08:15;;;;;;;1.53;0.77;;;;;;;19.29;65.64;100722.38;5111784;28;20409;-67
2024/04/05 11:10:45;;;;;;;1.40;1.00;;;;;;;19.18;66.47;100719.81;5111678;28;20527;-67
2024/04/05 11:13:17;;;;;;;6.50;1.17;;;;;;;19.31;66.63;100709.25;5109727;28;20424;-66
2024/04/05 11:15:45;;;;;;;1.97;0.90;;;;;;;19.70;65.11;100708.94;5107298;28;20512;-66
2024/04/05 11:18:14;;;;;;;2.03;0.70;;;;;;;20.02;63.07;100714.28;5099494;28;20452;-66
2024/04/05 11:20:42;;;;;;;3.10;0.90;;;;;;;20.27;61.87;100704.22;5103467;28;20949;-67
2024/04/05 11:23:15;;;;;;;2.47;1.53;;;;;;;20.33;61.00;100705.09;5098658;28;20400;-69
2024/04/05 11:25:51;;;;;;;1.20;0.97;;;;;;;20.34;62.13;100696.56;5107676;28;20407;-69